sensor_id;sensor_type;location;lat;lon;timestamp;P1;durP1;ratioP1;P2;durP2;ratioP2
49962;SDS011;36180;57.678;11.910;2023-08-17T00:01:56;4.82;;;2.05;;
49962;SDS011;36180;57.678;11.910;2023-08-17T00:04:25;7.95;;;2.42;;
49962;SDS011;36180;57.678;11.910;2023-08-17T00:06:52;8.02;;;2.28;;
49962;SDS011;36180;57.678;11.910;2023-08-17T00:09:19;8.88;;;2.60;;
49962;SDS011;36180;57.678;11.910;2023-08-17T00:11:47;7.32;;;2.13;;
49962;SDS011;36180;57.678;11.910;2023-08-17T00:14:14;7.63;;;1.92;;
49962;SDS011;36180;57.678;11.910;2023-08-17T00:16:41;7.18;;;2.08;;
49962;SDS011;36180;57.678;11.910;2023-08-17T00:19:08;6.47;;;2.30;;
49962;SDS011;36180;57.678;11.910;2023-08-17T00:21:37;4.82;;;1.73;;
49962;SDS011;36180;57.678;11.910;2023-08-17T00:24:04;9.68;;;2.30;;
49962;SDS011;36180;57.678;11.910;2023-08-17T00:26:31;7.55;;;2.20;;
49962;SDS011;36180;57.678;11.910;2023-08-17T00:28:58;5.07;;;2.03;;
49962;SDS011;36180;57.678;11.910;2023-08-17T00:31:25;6.22;;;2.30;;
49962;SDS011;36180;57.678;11.910;2023-08-17T00:33:52;5.70;;;1.85;;
49962;SDS011;36180;57.678;11.910;2023-08-17T00:36:20;9.32;;;2.40;;
49962;SDS011;36180;57.678;11.910;2023-08-17T00:38:48;5.30;;;2.20;;
49962;SDS011;36180;57.678;11.910;2023-08-17T00:41:15;9.00;;;2.60;;
49962;SDS011;36180;57.678;11.910;2023-08-17T00:43:42;10.00;;;2.40;;
49962;SDS011;36180;57.678;11.910;2023-08-17T00:46:10;3.83;;;2.15;;
49962;SDS011;36180;57.678;11.910;2023-08-17T00:48:37;4.78;;;2.22;;
49962;SDS011;36180;57.678;11.910;2023-08-17T00:51:04;6.55;;;2.20;;
49962;SDS011;36180;57.678;11.910;2023-08-17T00:53:31;5.50;;;2.28;;
49962;SDS011;36180;57.678;11.910;2023-08-17T00:56:01;7.55;;;2.20;;
49962;SDS011;36180;57.678;11.910;2023-08-17T00:58:28;7.38;;;2.10;;
49962;SDS011;36180;57.678;11.910;2023-08-17T01:00:55;5.43;;;2.20;;
49962;SDS011;36180;57.678;11.910;2023-08-17T01:03:22;8.43;;;2.72;;
49962;SDS011;36180;57.678;11.910;2023-08-17T01:05:49;5.85;;;2.65;;
49962;SDS011;36180;57.678;11.910;2023-08-17T01:08:16;5.78;;;2.00;;
49962;SDS011;36180;57.678;11.910;2023-08-17T01:10:47;9.23;;;2.60;;
49962;SDS011;36180;57.678;11.910;2023-08-17T01:13:21;5.95;;;2.45;;
49962;SDS011;36180;57.678;11.910;2023-08-17T01:15:52;6.35;;;2.17;;
49962;SDS011;36180;57.678;11.910;2023-08-17T01:18:22;5.20;;;2.10;;
49962;SDS011;36180;57.678;11.910;2023-08-17T01:20:51;6.40;;;2.50;;
49962;SDS011;36180;57.678;11.910;2023-08-17T01:23:21;4.68;;;2.10;;
49962;SDS011;36180;57.678;11.910;2023-08-17T01:25:48;9.45;;;2.72;;
49962;SDS011;36180;57.678;11.910;2023-08-17T01:28:15;7.03;;;2.17;;
49962;SDS011;36180;57.678;11.910;2023-08-17T01:30:44;7.28;;;2.50;;
49962;SDS011;36180;57.678;11.910;2023-08-17T01:33:13;6.13;;;2.40;;
49962;SDS011;36180;57.678;11.910;2023-08-17T01:35:47;6.28;;;2.60;;
49962;SDS011;36180;57.678;11.910;2023-08-17T01:38:22;7.68;;;2.45;;
49962;SDS011;36180;57.678;11.910;2023-08-17T01:40:50;6.07;;;2.40;;
49962;SDS011;36180;57.678;11.910;2023-08-17T01:43:18;6.90;;;3.03;;
49962;SDS011;36180;57.678;11.910;2023-08-17T01:45:46;11.88;;;2.58;;
49962;SDS011;36180;57.678;11.910;2023-08-17T01:48:14;6.13;;;2.60;;
49962;SDS011;36180;57.678;11.910;2023-08-17T01:50:41;5.35;;;2.30;;
49962;SDS011;36180;57.678;11.910;2023-08-17T01:53:08;10.50;;;3.08;;
49962;SDS011;36180;57.678;11.910;2023-08-17T01:55:38;6.93;;;2.40;;
49962;SDS011;36180;57.678;11.910;2023-08-17T01:58:06;7.38;;;3.28;;
49962;SDS011;36180;57.678;11.910;2023-08-17T02:00:33;9.02;;;2.70;;
49962;SDS011;36180;57.678;11.910;2023-08-17T02:03:00;6.75;;;2.97;;
49962;SDS011;36180;57.678;11.910;2023-08-17T02:05:27;7.63;;;3.00;;
49962;SDS011;36180;57.678;11.910;2023-08-17T02:07:54;8.52;;;2.33;;
49962;SDS011;36180;57.678;11.910;2023-08-17T02:10:21;7.47;;;3.80;;
49962;SDS011;36180;57.678;11.910;2023-08-17T02:12:49;7.03;;;3.00;;
49962;SDS011;36180;57.678;11.910;2023-08-17T02:15:17;6.07;;;2.33;;
49962;SDS011;36180;57.678;11.910;2023-08-17T02:17:44;5.88;;;2.30;;
49962;SDS011;36180;57.678;11.910;2023-08-17T02:20:11;10.02;;;3.22;;
49962;SDS011;36180;57.678;11.910;2023-08-17T02:22:41;5.30;;;2.63;;
49962;SDS011;36180;57.678;11.910;2023-08-17T02:25:08;8.90;;;2.58;;
49962;SDS011;36180;57.678;11.910;2023-08-17T02:27:35;7.00;;;3.00;;
49962;SDS011;36180;57.678;11.910;2023-08-17T02:30:04;6.78;;;2.53;;
49962;SDS011;36180;57.678;11.910;2023-08-17T02:32:33;7.95;;;2.75;;
49962;SDS011;36180;57.678;11.910;2023-08-17T02:35:00;6.07;;;2.42;;
49962;SDS011;36180;57.678;11.910;2023-08-17T02:37:27;7.70;;;2.70;;
49962;SDS011;36180;57.678;11.910;2023-08-17T02:39:54;9.75;;;2.70;;
49962;SDS011;36180;57.678;11.910;2023-08-17T02:42:21;8.82;;;2.58;;
49962;SDS011;36180;57.678;11.910;2023-08-17T02:44:48;6.13;;;2.83;;
49962;SDS011;36180;57.678;11.910;2023-08-17T02:47:17;6.30;;;2.42;;
49962;SDS011;36180;57.678;11.910;2023-08-17T02:49:44;7.78;;;2.60;;
49962;SDS011;36180;57.678;11.910;2023-08-17T02:52:11;7.20;;;2.72;;
49962;SDS011;36180;57.678;11.910;2023-08-17T02:54:38;7.75;;;2.53;;
49962;SDS011;36180;57.678;11.910;2023-08-17T02:57:05;6.38;;;3.05;;
49962;SDS011;36180;57.678;11.910;2023-08-17T02:59:32;6.10;;;2.47;;
49962;SDS011;36180;57.678;11.910;2023-08-17T03:01:59;8.07;;;2.60;;
49962;SDS011;36180;57.678;11.910;2023-08-17T03:04:27;7.18;;;2.33;;
49962;SDS011;36180;57.678;11.910;2023-08-17T03:06:55;9.10;;;2.15;;
49962;SDS011;36180;57.678;11.910;2023-08-17T03:09:22;5.38;;;2.50;;
49962;SDS011;36180;57.678;11.910;2023-08-17T03:11:49;5.13;;;2.42;;
49962;SDS011;36180;57.678;11.910;2023-08-17T03:14:16;6.30;;;2.30;;
49962;SDS011;36180;57.678;11.910;2023-08-17T03:16:43;5.03;;;2.78;;
49962;SDS011;36180;57.678;11.910;2023-08-17T03:19:10;6.68;;;2.28;;
49962;SDS011;36180;57.678;11.910;2023-08-17T03:21:41;7.75;;;2.78;;
49962;SDS011;36180;57.678;11.910;2023-08-17T03:24:09;4.35;;;2.50;;
49962;SDS011;36180;57.678;11.910;2023-08-17T03:26:36;10.00;;;2.60;;
49962;SDS011;36180;57.678;11.910;2023-08-17T03:29:03;6.45;;;2.45;;
49962;SDS011;36180;57.678;11.910;2023-08-17T03:31:30;6.75;;;2.15;;
49962;SDS011;36180;57.678;11.910;2023-08-17T03:33:57;6.47;;;2.83;;
49962;SDS011;36180;57.678;11.910;2023-08-17T03:36:26;8.90;;;2.30;;
49962;SDS011;36180;57.678;11.910;2023-08-17T03:38:54;4.25;;;2.65;;
49962;SDS011;36180;57.678;11.910;2023-08-17T03:41:21;8.45;;;2.58;;
49962;SDS011;36180;57.678;11.910;2023-08-17T03:43:49;5.15;;;2.53;;
49962;SDS011;36180;57.678;11.910;2023-08-17T03:46:17;5.32;;;2.40;;
49962;SDS011;36180;57.678;11.910;2023-08-17T03:48:44;8.48;;;2.65;;
49962;SDS011;36180;57.678;11.910;2023-08-17T03:51:11;6.25;;;2.45;;
49962;SDS011;36180;57.678;11.910;2023-08-17T03:53:38;9.32;;;3.00;;
49962;SDS011;36180;57.678;11.910;2023-08-17T03:56:06;4.80;;;2.40;;
49962;SDS011;36180;57.678;11.910;2023-08-17T03:58:33;7.40;;;2.45;;
49962;SDS011;36180;57.678;11.910;2023-08-17T04:01:00;5.75;;;2.40;;
49962;SDS011;36180;57.678;11.910;2023-08-17T04:03:29;6.30;;;2.60;;
49962;SDS011;36180;57.678;11.910;2023-08-17T04:05:58;4.05;;;2.00;;
49962;SDS011;36180;57.678;11.910;2023-08-17T04:08:25;6.65;;;2.63;;
49962;SDS011;36180;57.678;11.910;2023-08-17T04:10:52;6.30;;;2.22;;
49962;SDS011;36180;57.678;11.910;2023-08-17T04:13:21;5.47;;;2.28;;
49962;SDS011;36180;57.678;11.910;2023-08-17T04:15:48;4.22;;;2.33;;
49962;SDS011;36180;57.678;11.910;2023-08-17T04:18:15;4.75;;;2.55;;
49962;SDS011;36180;57.678;11.910;2023-08-17T04:20:42;10.35;;;2.60;;
49962;SDS011;36180;57.678;11.910;2023-08-17T04:23:12;5.22;;;2.50;;
49962;SDS011;36180;57.678;11.910;2023-08-17T04:25:40;5.70;;;2.10;;
49962;SDS011;36180;57.678;11.910;2023-08-17T04:28:08;4.35;;;2.40;;
49962;SDS011;36180;57.678;11.910;2023-08-17T04:30:37;5.45;;;2.47;;
49962;SDS011;36180;57.678;11.910;2023-08-17T04:33:04;6.00;;;2.55;;
49962;SDS011;36180;57.678;11.910;2023-08-17T04:35:33;10.63;;;2.70;;
49962;SDS011;36180;57.678;11.910;2023-08-17T04:38:01;6.25;;;2.58;;
49962;SDS011;36180;57.678;11.910;2023-08-17T04:40:28;6.10;;;2.65;;
49962;SDS011;36180;57.678;11.910;2023-08-17T04:42:58;6.25;;;2.58;;
49962;SDS011;36180;57.678;11.910;2023-08-17T04:45:26;3.30;;;2.35;;
49962;SDS011;36180;57.678;11.910;2023-08-17T04:47:54;7.55;;;2.92;;
49962;SDS011;36180;57.678;11.910;2023-08-17T04:50:22;7.40;;;3.03;;
49962;SDS011;36180;57.678;11.910;2023-08-17T04:52:49;8.07;;;3.78;;
49962;SDS011;36180;57.678;11.910;2023-08-17T04:55:16;7.20;;;3.13;;
49962;SDS011;36180;57.678;11.910;2023-08-17T04:57:43;5.60;;;3.10;;
49962;SDS011;36180;57.678;11.910;2023-08-17T05:00:13;5.15;;;3.13;;
49962;SDS011;36180;57.678;11.910;2023-08-17T05:02:42;7.30;;;3.47;;
49962;SDS011;36180;57.678;11.910;2023-08-17T05:05:10;4.35;;;3.40;;
49962;SDS011;36180;57.678;11.910;2023-08-17T05:07:39;7.63;;;3.53;;
49962;SDS011;36180;57.678;11.910;2023-08-17T05:10:06;10.65;;;3.75;;
49962;SDS011;36180;57.678;11.910;2023-08-17T05:12:37;9.05;;;3.45;;
49962;SDS011;36180;57.678;11.910;2023-08-17T05:15:05;7.97;;;3.70;;
49962;SDS011;36180;57.678;11.910;2023-08-17T05:17:32;5.85;;;3.38;;
49962;SDS011;36180;57.678;11.910;2023-08-17T05:19:59;6.78;;;3.40;;
49962;SDS011;36180;57.678;11.910;2023-08-17T05:22:28;17.50;;;4.25;;
49962;SDS011;36180;57.678;11.910;2023-08-17T05:24:55;5.20;;;3.40;;
49962;SDS011;36180;57.678;11.910;2023-08-17T05:27:22;11.55;;;3.55;;
49962;SDS011;36180;57.678;11.910;2023-08-17T05:29:49;5.60;;;3.08;;
49962;SDS011;36180;57.678;11.910;2023-08-17T05:32:17;6.55;;;3.17;;
49962;SDS011;36180;57.678;11.910;2023-08-17T05:34:46;7.80;;;3.10;;
49962;SDS011;36180;57.678;11.910;2023-08-17T05:37:13;6.13;;;3.13;;
49962;SDS011;36180;57.678;11.910;2023-08-17T05:39:43;6.45;;;3.13;;
49962;SDS011;36180;57.678;11.910;2023-08-17T05:42:10;9.00;;;3.15;;
49962;SDS011;36180;57.678;11.910;2023-08-17T05:44:37;5.82;;;3.35;;
49962;SDS011;36180;57.678;11.910;2023-08-17T05:47:04;6.78;;;2.80;;
49962;SDS011;36180;57.678;11.910;2023-08-17T05:49:31;10.55;;;4.03;;
49962;SDS011;36180;57.678;11.910;2023-08-17T05:51:58;8.23;;;3.38;;
49962;SDS011;36180;57.678;11.910;2023-08-17T05:54:25;8.73;;;3.30;;
49962;SDS011;36180;57.678;11.910;2023-08-17T05:56:54;6.43;;;2.60;;
49962;SDS011;36180;57.678;11.910;2023-08-17T05:59:21;7.45;;;3.47;;
49962;SDS011;36180;57.678;11.910;2023-08-17T06:01:48;5.95;;;2.63;;
49962;SDS011;36180;57.678;11.910;2023-08-17T06:04:15;6.65;;;3.08;;
49962;SDS011;36180;57.678;11.910;2023-08-17T06:06:42;6.18;;;2.80;;
49962;SDS011;36180;57.678;11.910;2023-08-17T06:09:09;5.63;;;3.03;;
49962;SDS011;36180;57.678;11.910;2023-08-17T06:11:36;8.10;;;2.70;;
49962;SDS011;36180;57.678;11.910;2023-08-17T06:14:05;4.40;;;2.58;;
49962;SDS011;36180;57.678;11.910;2023-08-17T06:16:32;5.75;;;2.70;;
49962;SDS011;36180;57.678;11.910;2023-08-17T06:18:59;4.47;;;2.38;;
49962;SDS011;36180;57.678;11.910;2023-08-17T06:21:26;5.82;;;2.80;;
49962;SDS011;36180;57.678;11.910;2023-08-17T06:23:53;6.07;;;2.83;;
49962;SDS011;36180;57.678;11.910;2023-08-17T06:26:20;10.48;;;2.67;;
49962;SDS011;36180;57.678;11.910;2023-08-17T06:28:47;4.15;;;2.72;;
49962;SDS011;36180;57.678;11.910;2023-08-17T06:31:16;8.05;;;2.72;;
49962;SDS011;36180;57.678;11.910;2023-08-17T06:33:43;6.70;;;2.55;;
49962;SDS011;36180;57.678;11.910;2023-08-17T06:36:10;8.10;;;2.55;;
49962;SDS011;36180;57.678;11.910;2023-08-17T06:38:38;5.35;;;2.22;;
49962;SDS011;36180;57.678;11.910;2023-08-17T06:41:05;4.53;;;2.05;;
49962;SDS011;36180;57.678;11.910;2023-08-17T06:43:32;4.90;;;2.15;;
49962;SDS011;36180;57.678;11.910;2023-08-17T06:45:59;3.70;;;2.03;;
49962;SDS011;36180;57.678;11.910;2023-08-17T06:48:28;5.20;;;2.13;;
49962;SDS011;36180;57.678;11.910;2023-08-17T06:50:56;4.18;;;1.67;;
49962;SDS011;36180;57.678;11.910;2023-08-17T06:53:23;5.63;;;2.20;;
49962;SDS011;36180;57.678;11.910;2023-08-17T06:55:50;9.10;;;2.10;;
49962;SDS011;36180;57.678;11.910;2023-08-17T06:58:17;6.22;;;2.08;;
49962;SDS011;36180;57.678;11.910;2023-08-17T07:00:44;5.80;;;2.50;;
49962;SDS011;36180;57.678;11.910;2023-08-17T07:03:12;4.28;;;2.00;;
49962;SDS011;36180;57.678;11.910;2023-08-17T07:05:40;4.32;;;2.10;;
49962;SDS011;36180;57.678;11.910;2023-08-17T07:08:07;3.20;;;1.70;;
49962;SDS011;36180;57.678;11.910;2023-08-17T07:10:34;4.00;;;1.88;;
49962;SDS011;36180;57.678;11.910;2023-08-17T07:13:01;6.10;;;2.00;;
49962;SDS011;36180;57.678;11.910;2023-08-17T07:15:29;6.20;;;2.03;;
49962;SDS011;36180;57.678;11.910;2023-08-17T07:17:56;4.50;;;1.67;;
49962;SDS011;36180;57.678;11.910;2023-08-17T07:20:23;4.90;;;1.90;;
49962;SDS011;36180;57.678;11.910;2023-08-17T07:22:51;5.43;;;2.30;;
49962;SDS011;36180;57.678;11.910;2023-08-17T07:25:18;2.95;;;1.63;;
49962;SDS011;36180;57.678;11.910;2023-08-17T07:27:46;6.22;;;2.00;;
49962;SDS011;36180;57.678;11.910;2023-08-17T07:30:13;6.32;;;2.13;;
49962;SDS011;36180;57.678;11.910;2023-08-17T07:32:40;5.40;;;1.90;;
49962;SDS011;36180;57.678;11.910;2023-08-17T07:35:07;4.18;;;2.03;;
49962;SDS011;36180;57.678;11.910;2023-08-17T07:37:34;6.30;;;1.90;;
49962;SDS011;36180;57.678;11.910;2023-08-17T07:40:03;5.63;;;1.80;;
49962;SDS011;36180;57.678;11.910;2023-08-17T07:42:32;3.47;;;1.42;;
49962;SDS011;36180;57.678;11.910;2023-08-17T07:44:59;2.45;;;1.35;;
49962;SDS011;36180;57.678;11.910;2023-08-17T07:47:28;2.97;;;1.42;;
49962;SDS011;36180;57.678;11.910;2023-08-17T07:49:55;2.50;;;1.58;;
49962;SDS011;36180;57.678;11.910;2023-08-17T07:52:23;5.13;;;2.03;;
49962;SDS011;36180;57.678;11.910;2023-08-17T07:54:50;4.35;;;1.80;;
49962;SDS011;36180;57.678;11.910;2023-08-17T07:57:18;3.58;;;1.75;;
49962;SDS011;36180;57.678;11.910;2023-08-17T07:59:45;2.33;;;1.60;;
49962;SDS011;36180;57.678;11.910;2023-08-17T08:02:12;3.83;;;1.52;;
49962;SDS011;36180;57.678;11.910;2023-08-17T08:04:39;3.05;;;1.65;;
49962;SDS011;36180;57.678;11.910;2023-08-17T08:07:06;3.63;;;1.60;;
49962;SDS011;36180;57.678;11.910;2023-08-17T08:09:33;3.78;;;2.20;;
49962;SDS011;36180;57.678;11.910;2023-08-17T08:12:01;2.70;;;1.67;;
49962;SDS011;36180;57.678;11.910;2023-08-17T08:14:30;3.17;;;1.70;;
49962;SDS011;36180;57.678;11.910;2023-08-17T08:16:57;2.85;;;1.52;;
49962;SDS011;36180;57.678;11.910;2023-08-17T08:19:24;4.70;;;1.67;;
49962;SDS011;36180;57.678;11.910;2023-08-17T08:21:51;5.10;;;1.65;;
49962;SDS011;36180;57.678;11.910;2023-08-17T08:24:19;3.55;;;1.50;;
49962;SDS011;36180;57.678;11.910;2023-08-17T08:26:46;3.72;;;1.70;;
49962;SDS011;36180;57.678;11.910;2023-08-17T08:29:13;4.45;;;1.73;;
49962;SDS011;36180;57.678;11.910;2023-08-17T08:31:41;3.28;;;1.63;;
49962;SDS011;36180;57.678;11.910;2023-08-17T08:34:08;7.75;;;1.77;;
49962;SDS011;36180;57.678;11.910;2023-08-17T08:36:35;2.83;;;1.40;;
49962;SDS011;36180;57.678;11.910;2023-08-17T08:39:03;3.40;;;1.40;;
49962;SDS011;36180;57.678;11.910;2023-08-17T08:41:30;3.42;;;1.50;;
49962;SDS011;36180;57.678;11.910;2023-08-17T08:43:58;6.32;;;2.00;;
49962;SDS011;36180;57.678;11.910;2023-08-17T08:46:26;3.28;;;1.70;;
49962;SDS011;36180;57.678;11.910;2023-08-17T08:48:55;3.08;;;1.42;;
49962;SDS011;36180;57.678;11.910;2023-08-17T08:51:23;2.58;;;1.70;;
49962;SDS011;36180;57.678;11.910;2023-08-17T08:53:54;2.65;;;1.55;;
49962;SDS011;36180;57.678;11.910;2023-08-17T08:56:29;4.05;;;1.48;;
49962;SDS011;36180;57.678;11.910;2023-08-17T08:58:58;3.17;;;2.15;;
49962;SDS011;36180;57.678;11.910;2023-08-17T09:01:28;5.13;;;1.77;;
49962;SDS011;36180;57.678;11.910;2023-08-17T09:04:00;4.55;;;1.60;;
49962;SDS011;36180;57.678;11.910;2023-08-17T09:06:29;4.85;;;2.05;;
49962;SDS011;36180;57.678;11.910;2023-08-17T09:08:56;3.20;;;1.70;;
49962;SDS011;36180;57.678;11.910;2023-08-17T09:11:25;3.53;;;1.67;;
49962;SDS011;36180;57.678;11.910;2023-08-17T09:13:52;4.93;;;1.75;;
49962;SDS011;36180;57.678;11.910;2023-08-17T09:16:19;3.55;;;1.67;;
49962;SDS011;36180;57.678;11.910;2023-08-17T09:18:46;1.88;;;1.30;;
49962;SDS011;36180;57.678;11.910;2023-08-17T09:21:21;3.22;;;1.50;;
49962;SDS011;36180;57.678;11.910;2023-08-17T09:23:52;3.58;;;1.23;;
49962;SDS011;36180;57.678;11.910;2023-08-17T09:26:19;4.45;;;1.50;;
49962;SDS011;36180;57.678;11.910;2023-08-17T09:28:48;6.38;;;1.90;;
49962;SDS011;36180;57.678;11.910;2023-08-17T09:31:16;4.07;;;1.70;;
49962;SDS011;36180;57.678;11.910;2023-08-17T09:33:45;2.50;;;1.60;;
49962;SDS011;36180;57.678;11.910;2023-08-17T09:36:19;5.65;;;1.70;;
49962;SDS011;36180;57.678;11.910;2023-08-17T09:41:15;3.38;;;1.58;;
49962;SDS011;36180;57.678;11.910;2023-08-17T09:43:44;4.43;;;1.70;;
49962;SDS011;36180;57.678;11.910;2023-08-17T09:46:11;5.43;;;1.70;;
49962;SDS011;36180;57.678;11.910;2023-08-17T09:48:38;4.25;;;1.70;;
49962;SDS011;36180;57.678;11.910;2023-08-17T09:51:06;4.20;;;1.90;;
49962;SDS011;36180;57.678;11.910;2023-08-17T09:53:37;3.70;;;1.67;;
49962;SDS011;36180;57.678;11.910;2023-08-17T09:56:04;3.03;;;1.92;;
49962;SDS011;36180;57.678;11.910;2023-08-17T09:58:33;2.88;;;1.77;;
49962;SDS011;36180;57.678;11.910;2023-08-17T10:01:01;6.30;;;1.75;;
49962;SDS011;36180;57.678;11.910;2023-08-17T10:03:30;6.60;;;1.67;;
49962;SDS011;36180;57.678;11.910;2023-08-17T10:05:59;3.00;;;1.60;;
49962;SDS011;36180;57.678;11.910;2023-08-17T10:08:31;7.78;;;1.80;;
49962;SDS011;36180;57.678;11.910;2023-08-17T10:11:01;2.95;;;1.50;;
49962;SDS011;36180;57.678;11.910;2023-08-17T10:13:31;6.63;;;2.20;;
49962;SDS011;36180;57.678;11.910;2023-08-17T10:16:02;5.07;;;2.00;;
49962;SDS011;36180;57.678;11.910;2023-08-17T10:18:31;5.35;;;2.10;;
49962;SDS011;36180;57.678;11.910;2023-08-17T10:21:05;5.82;;;1.95;;
49962;SDS011;36180;57.678;11.910;2023-08-17T10:23:33;5.80;;;1.80;;
49962;SDS011;36180;57.678;11.910;2023-08-17T10:26:01;5.22;;;2.05;;
49962;SDS011;36180;57.678;11.910;2023-08-17T10:28:29;7.07;;;2.08;;
49962;SDS011;36180;57.678;11.910;2023-08-17T10:30:58;7.45;;;2.40;;
49962;SDS011;36180;57.678;11.910;2023-08-17T10:33:25;6.65;;;2.30;;
49962;SDS011;36180;57.678;11.910;2023-08-17T10:35:53;4.63;;;1.88;;
49962;SDS011;36180;57.678;11.910;2023-08-17T10:38:20;5.93;;;1.73;;
49962;SDS011;36180;57.678;11.910;2023-08-17T10:41:06;4.63;;;1.80;;
49962;SDS011;36180;57.678;11.910;2023-08-17T10:46:21;3.17;;;1.65;;
49962;SDS011;36180;57.678;11.910;2023-08-17T10:49:00;4.72;;;1.60;;
49962;SDS011;36180;57.678;11.910;2023-08-17T10:51:30;6.20;;;2.83;;
49962;SDS011;36180;57.678;11.910;2023-08-17T10:53:58;3.88;;;1.60;;
49962;SDS011;36180;57.678;11.910;2023-08-17T10:56:29;5.10;;;2.60;;
49962;SDS011;36180;57.678;11.910;2023-08-17T10:58:59;5.57;;;1.40;;
49962;SDS011;36180;57.678;11.910;2023-08-17T11:01:33;6.95;;;2.55;;
49962;SDS011;36180;57.678;11.910;2023-08-17T11:04:10;4.63;;;1.33;;
49962;SDS011;36180;57.678;11.910;2023-08-17T11:06:38;3.33;;;1.60;;
49962;SDS011;36180;57.678;11.910;2023-08-17T11:09:06;5.13;;;1.98;;
49962;SDS011;36180;57.678;11.910;2023-08-17T11:11:35;3.83;;;1.48;;
49962;SDS011;36180;57.678;11.910;2023-08-17T11:14:02;5.15;;;1.98;;
49962;SDS011;36180;57.678;11.910;2023-08-17T11:16:30;2.10;;;1.42;;
49962;SDS011;36180;57.678;11.910;2023-08-17T11:18:57;3.28;;;1.65;;
49962;SDS011;36180;57.678;11.910;2023-08-17T11:21:25;5.88;;;1.70;;
49962;SDS011;36180;57.678;11.910;2023-08-17T11:23:54;3.05;;;1.27;;
49962;SDS011;36180;57.678;11.910;2023-08-17T11:26:23;2.90;;;1.73;;
49962;SDS011;36180;57.678;11.910;2023-08-17T11:28:51;3.88;;;1.80;;
49962;SDS011;36180;57.678;11.910;2023-08-17T11:31:19;2.40;;;1.67;;
49962;SDS011;36180;57.678;11.910;2023-08-17T11:33:46;3.83;;;1.58;;
49962;SDS011;36180;57.678;11.910;2023-08-17T11:36:13;2.55;;;1.58;;
49962;SDS011;36180;57.678;11.910;2023-08-17T11:38:41;3.30;;;1.58;;
49962;SDS011;36180;57.678;11.910;2023-08-17T11:41:09;3.97;;;1.50;;
49962;SDS011;36180;57.678;11.910;2023-08-17T11:43:36;4.10;;;1.58;;
49962;SDS011;36180;57.678;11.910;2023-08-17T11:46:05;8.65;;;2.17;;
49962;SDS011;36180;57.678;11.910;2023-08-17T11:48:32;4.32;;;1.50;;
49962;SDS011;36180;57.678;11.910;2023-08-17T11:50:59;3.20;;;1.58;;
49962;SDS011;36180;57.678;11.910;2023-08-17T11:53:32;2.35;;;1.33;;
49962;SDS011;36180;57.678;11.910;2023-08-17T11:56:00;3.90;;;1.67;;
49962;SDS011;36180;57.678;11.910;2023-08-17T11:58:39;4.93;;;2.00;;
49962;SDS011;36180;57.678;11.910;2023-08-17T12:01:09;3.22;;;1.45;;
49962;SDS011;36180;57.678;11.910;2023-08-17T12:03:37;4.78;;;1.60;;
49962;SDS011;36180;57.678;11.910;2023-08-17T12:06:05;4.15;;;1.52;;
49962;SDS011;36180;57.678;11.910;2023-08-17T12:08:32;2.47;;;1.55;;
49962;SDS011;36180;57.678;11.910;2023-08-17T12:11:00;6.35;;;1.70;;
49962;SDS011;36180;57.678;11.910;2023-08-17T12:13:34;4.13;;;1.60;;
49962;SDS011;36180;57.678;11.910;2023-08-17T12:16:02;3.67;;;1.80;;
49962;SDS011;36180;57.678;11.910;2023-08-17T12:18:33;2.38;;;1.40;;
49962;SDS011;36180;57.678;11.910;2023-08-17T12:21:00;7.45;;;1.60;;
49962;SDS011;36180;57.678;11.910;2023-08-17T12:23:27;3.33;;;1.40;;
49962;SDS011;36180;57.678;11.910;2023-08-17T12:25:55;3.33;;;1.50;;
49962;SDS011;36180;57.678;11.910;2023-08-17T12:28:22;3.50;;;1.50;;
49962;SDS011;36180;57.678;11.910;2023-08-17T12:30:57;2.95;;;1.70;;
49962;SDS011;36180;57.678;11.910;2023-08-17T12:33:25;3.40;;;1.60;;
49962;SDS011;36180;57.678;11.910;2023-08-17T12:35:54;3.80;;;1.55;;
49962;SDS011;36180;57.678;11.910;2023-08-17T12:38:22;2.83;;;1.52;;
49962;SDS011;36180;57.678;11.910;2023-08-17T12:40:50;4.40;;;1.50;;
49962;SDS011;36180;57.678;11.910;2023-08-17T12:43:17;2.70;;;1.55;;
49962;SDS011;36180;57.678;11.910;2023-08-17T12:45:44;2.42;;;1.73;;
49962;SDS011;36180;57.678;11.910;2023-08-17T12:48:11;2.85;;;1.52;;
49962;SDS011;36180;57.678;11.910;2023-08-17T12:50:38;3.05;;;1.63;;
49962;SDS011;36180;57.678;11.910;2023-08-17T12:53:06;3.72;;;1.60;;
49962;SDS011;36180;57.678;11.910;2023-08-17T12:55:33;3.70;;;1.67;;
49962;SDS011;36180;57.678;11.910;2023-08-17T12:58:02;3.97;;;1.63;;
49962;SDS011;36180;57.678;11.910;2023-08-17T13:00:30;3.70;;;1.65;;
49962;SDS011;36180;57.678;11.910;2023-08-17T13:02:57;4.35;;;1.38;;
49962;SDS011;36180;57.678;11.910;2023-08-17T13:05:24;1.52;;;1.10;;
49962;SDS011;36180;57.678;11.910;2023-08-17T13:07:51;3.00;;;1.27;;
49962;SDS011;36180;57.678;11.910;2023-08-17T13:10:19;2.35;;;1.05;;
49962;SDS011;36180;57.678;11.910;2023-08-17T13:12:46;1.70;;;1.38;;
49962;SDS011;36180;57.678;11.910;2023-08-17T13:15:13;2.83;;;1.20;;
49962;SDS011;36180;57.678;11.910;2023-08-17T13:17:41;2.35;;;1.40;;
49962;SDS011;36180;57.678;11.910;2023-08-17T13:20:08;2.40;;;1.27;;
49962;SDS011;36180;57.678;11.910;2023-08-17T13:22:36;4.07;;;1.52;;
49962;SDS011;36180;57.678;11.910;2023-08-17T13:25:03;3.00;;;1.33;;
49962;SDS011;36180;57.678;11.910;2023-08-17T13:27:32;3.53;;;1.35;;
49962;SDS011;36180;57.678;11.910;2023-08-17T13:29:59;3.55;;;1.40;;
49962;SDS011;36180;57.678;11.910;2023-08-17T13:32:27;4.80;;;1.40;;
49962;SDS011;36180;57.678;11.910;2023-08-17T13:34:54;3.13;;;1.20;;
49962;SDS011;36180;57.678;11.910;2023-08-17T13:37:21;3.30;;;1.50;;
49962;SDS011;36180;57.678;11.910;2023-08-17T13:39:48;1.83;;;1.25;;
49962;SDS011;36180;57.678;11.910;2023-08-17T13:42:15;2.13;;;1.50;;
49962;SDS011;36180;57.678;11.910;2023-08-17T13:44:44;4.80;;;1.30;;
49962;SDS011;36180;57.678;11.910;2023-08-17T13:47:11;2.10;;;1.42;;
49962;SDS011;36180;57.678;11.910;2023-08-17T13:49:38;3.45;;;1.60;;
49962;SDS011;36180;57.678;11.910;2023-08-17T13:52:05;4.63;;;1.45;;
49962;SDS011;36180;57.678;11.910;2023-08-17T13:54:32;2.95;;;1.67;;
49962;SDS011;36180;57.678;11.910;2023-08-17T13:56:59;5.50;;;1.88;;
49962;SDS011;36180;57.678;11.910;2023-08-17T13:59:26;2.42;;;1.50;;
49962;SDS011;36180;57.678;11.910;2023-08-17T14:01:56;3.35;;;1.35;;
49962;SDS011;36180;57.678;11.910;2023-08-17T14:04:23;3.17;;;1.30;;
49962;SDS011;36180;57.678;11.910;2023-08-17T14:06:50;2.10;;;1.40;;
49962;SDS011;36180;57.678;11.910;2023-08-17T14:09:17;2.95;;;1.55;;
49962;SDS011;36180;57.678;11.910;2023-08-17T14:11:44;3.42;;;1.48;;
49962;SDS011;36180;57.678;11.910;2023-08-17T14:14:11;4.50;;;1.30;;
49962;SDS011;36180;57.678;11.910;2023-08-17T14:16:38;2.50;;;1.70;;
49962;SDS011;36180;57.678;11.910;2023-08-17T14:19:07;4.38;;;1.67;;
49962;SDS011;36180;57.678;11.910;2023-08-17T14:21:34;2.83;;;1.65;;
49962;SDS011;36180;57.678;11.910;2023-08-17T14:24:01;3.78;;;1.88;;
49962;SDS011;36180;57.678;11.910;2023-08-17T14:26:29;3.30;;;1.40;;
49962;SDS011;36180;57.678;11.910;2023-08-17T14:28:56;3.42;;;1.98;;
49962;SDS011;36180;57.678;11.910;2023-08-17T14:31:23;5.00;;;1.80;;
49962;SDS011;36180;57.678;11.910;2023-08-17T14:33:50;3.92;;;1.75;;
49962;SDS011;36180;57.678;11.910;2023-08-17T14:36:18;2.92;;;1.83;;
49962;SDS011;36180;57.678;11.910;2023-08-17T14:38:46;4.05;;;1.50;;
49962;SDS011;36180;57.678;11.910;2023-08-17T14:41:13;4.00;;;1.80;;
49962;SDS011;36180;57.678;11.910;2023-08-17T14:43:40;1.83;;;1.30;;